Weather observations for the past three days for
Farmville
Metric (Imperial)
Date Time (edt) Wind (kph) Vis. (km) Weather Sky Cond. Temperature (ºC) Relative Humidity Wind Chill (°C) Heat Index (°C) Pressure Precipitation (cm)
Air Dwpt 6 hour altimeter (cm) sea level (mb) 1 hr 3 hr 6 hr
Max. Min.
03 19:35 Calm 16.09 Fair CLR 33.3 24.9 61% 41 76.05 0.0
03 19:15 Calm 16.09 Fair CLR 34.2 24 55% 41 76.02 0.0
03 18:55 Calm 16.09 Fair CLR 34.9 23.9 53% 42 76.02 0.0
03 18:35 Calm 16.09 Fair CLR 35.1 23.7 52% 42 76.02 0.0
03 18:15 S 6 16.09 Fair CLR 36.4 24.1 49% 44 76.02 0.0
03 17:55 S 7 16.09 Fair CLR 37.4 23.5 45% 44 76.05 0.0
03 17:35 Calm 16.09 Fair CLR 38.3 24.8 46% 47 76.05 0.0
03 17:15 S 9 16.09 Fair CLR 38 24.5 46% 46 76.05 0.0
03 16:55 Calm 16.09 Fair CLR 37.6 23.8 45% 45 76.07 0.0
03 16:35 Calm 16.09 Fair CLR 38 24.7 47% 47 76.1 0.0
03 16:15 Calm 16.09 Fair CLR 38.2 23.5 43% 45 76.1 0.0
03 15:55 Calm 16.09 Fair CLR 37.6 22.7 42% 44 76.12 0.0
03 15:35 S 6 16.09 Fair CLR 38.1 23.5 43% 45 76.15 0.0
03 15:15 NE 9 16.09 Partly Cloudy SCT065 37.7 24.1 46% 45 76.15 0.0
03 14:55 E 7 16.09 Mostly Cloudy BKN065 37.8 24.2 46% 46 76.17 0.0
03 14:35 NE 6 16.09 Partly Cloudy SCT070 SCT075 38.2 23.9 44% 46 76.2 0.0
03 14:15 Calm 16.09 Fair CLR 36.9 23.1 45% 43 76.23 0.0
03 13:55 Calm 16.09 Fair CLR 37 24.4 37.7 23.4 48% 45 76.25 0.0
03 13:35 E 7 16.09 Fair CLR 37.5 25.1 49% 47 76.25 0.0
03 13:15 N 6 16.09 Fair CLR 36.2 24.2 50% 44 76.25 0.0
03 12:55 Calm 16.09 Fair CLR 35.6 24.7 53% 44 76.25 0.0
03 12:35 Calm 16.09 Fair CLR 36.2 24.3 50% 44 76.28 0.0
03 12:15 NE 6 16.09 Fair CLR 36.4 25 52% 45 76.3 0.0
03 11:55 Calm 16.09 NULL NULL 35.5 25.8 57% 45 76.3 0.0
03 11:15 Calm 16.09 Fair CLR 34.2 26.3 63% 44 76.3 0.0
03 10:55 Calm 16.09 Fair CLR 33 25.8 66% 42 76.3 0.0
03 10:35 Calm 16.09 Fair CLR 31.6 26.6 75% 41 76.3 0.0
03 10:15 Calm 16.09 Fair CLR 30.7 26.1 76% 39 76.3 0.0
03 09:55 Calm 16.09 Fair CLR 29.5 25.6 80% 36 76.3 0.0
03 09:35 Calm 16.09 Fair CLR 28.4 25.7 85% 34 76.3 0.0
03 09:15 Calm 16.09 Fair CLR 27.4 25.6 90% 32 76.33 0.0
03 08:55 Calm 16.09 Fair CLR 26.2 25.1 94% 29 76.33 0.0
03 08:35 W 6 16.09 Fair CLR 25.2 24.6 96% 26 76.35 0.0
03 08:15 Calm 16.09 Fair CLR 24.4 24.4 100% 24 76.35 0.0
03 07:55 Calm 11.27 Fair CLR 23.3 23.3 23.8 21.5 100% 76.33 0.0 0.03
03 07:35 Calm 6.44 Fog/Mist CLR 22.5 22.5 100% 76.33 0.0
03 07:15 S 6 4.02 Fog/Mist SCT003 21.9 21.9 100% 76.3 0.0
03 06:55 Calm 1.21 Fog/Mist BKN003 21.8 21.8 100% 76.3 0.0 0.03
03 06:35 Calm 2.41 Fog/Mist SCT003 22 22 100% 76.28 0.0 0.03
03 06:15 Calm 4.02 Fog/Mist SCT003 21.7 21.7 100% 76.3 0.0
03 05:55 Calm 2.41 Fog/Mist VV007 21.8 21.8 100% 76.28 0.0
03 05:35 Calm 4.83 Fog/Mist CLR 22.5 22.5 100% 76.28 0.0
03 05:15 Calm 4.02 Fog/Mist CLR 22.5 22.5 100% 76.28 0.0
03 04:55 Calm 2.82 Fog/Mist VV007 22.4 22.4 100% 76.25 0.0
03 04:35 Calm 3.22 Fog/Mist CLR 22.6 22.6 100% 76.25 0.0
03 04:15 Calm 4.02 Fog/Mist SCT002 22.7 22.7 100% 76.25 0.0
03 03:55 Calm 4.02 Fog/Mist SCT002 23 23 100% 76.28 0.0
03 03:35 Calm 2.82 Fog/Mist VV007 22.8 22.8 100% 76.25 0.0
03 03:15 W 6 4.83 Fog/Mist CLR 23.1 23.1 100% 76.25 0.0
03 02:55 Calm 4.83 Fog/Mist CLR 23.3 23.3 100% 76.25 0.0
03 02:35 Calm 2.41 Fog/Mist VV007 23.3 23.3 100% 76.25 0.0
03 02:15 Calm 8.05 Fog/Mist CLR 23.7 23.7 100% 76.28 0.0
03 01:55 N 6 11.27 Fair CLR 23.8 23.8 26 23.5 100% 76.3 0.0
03 01:35 N 6 11.27 Fair CLR 23.7 23.7 100% 76.3 0.0
03 01:15 Calm 4.83 Fog/Mist CLR 23.6 23.6 100% 76.28 0.0
03 00:55 Calm 6.44 Fog/Mist CLR 24 23.9 99% 23 76.28 0.0
03 00:35 Calm 11.27 Fair CLR 24.4 24.4 100% 24 76.28 0.0
03 00:15 Calm 6.44 Fog/Mist CLR 24.2 24.2 100% 23 76.3 0.0
02 23:55 Calm 3.22 Fog/Mist CLR 24.4 24.4 100% 24 76.28 0.0
02 23:35 Calm 1.21 Fog/Mist BKN001 24.2 24.2 100% 23 76.3 0.0
02 23:15 Calm 4.83 Fog/Mist CLR 24.5 24.5 100% 24 76.3 0.0
02 22:55 N 6 11.27 Fair CLR 25 25 100% 25 76.3 0.0
02 22:35 N 7 8.05 Fog/Mist CLR 25.2 25.2 100% 26 76.35 0.0
02 22:15 NW 6 6.44 Fog/Mist CLR 25 25 100% 25 76.33 0.0
02 21:55 NW 6 6.44 Fog/Mist CLR 25.2 25.2 100% 26 76.35 0.0
02 21:35 Calm 4.83 Fog/Mist CLR 24.7 24.7 100% 24 76.33 0.0
02 21:15 Calm 2.01 Fog/Mist VV007 25.1 25.1 100% 26 76.33 0.0
02 20:55 Calm 3.22 Fog/Mist CLR 25.3 25.3 100% 26 76.3 0.0
02 20:35 Calm 8.05 Fog/Mist CLR 25.6 25.6 100% 27 76.3 0.0
02 20:15 Calm 16.09 Fair CLR 25.9 25.6 98% 28 76.3 0.0
02 19:55 N 7 16.09 Fair CLR 26 25.5 38.5 25.4 97% 28 76.3 0.0 0.41
02 19:35 Calm 16.09 Fair CLR 25.7 25.5 99% 27 76.25 0.0
02 19:15 Calm 6.44 Fog/Mist SCT017 SCT022 SCT030 26 26 100% 28 76.2 0.0
02 18:55 W 6 2.82 Rain SCT017 BKN034 OVC070 25.4 25 98% 27 76.25 0.0 0.41
02 18:35 N 28 G 44 16.09 Thunderstorm Rain BKN060 OVC080 26.1 24.3 90% 28 76.28 0.0
02 18:15 N 28 G 39 16.09 Thunderstorm in Vicinity SCT070 BKN090 34 24.9 59% 42 76.3 0.0
02 17:55 E 11 16.09 Thunderstorm in Vicinity OVC090 35.4 24.6 54% 43 76.25 0.0
02 17:35 E 11 16.09 Mostly Cloudy BKN090 36.3 24.2 50% 44 76.23 0.0
02 17:15 SE 6 16.09 Mostly Cloudy BKN090 37.5 22.8 43% 44 76.2 0.0
02 16:55 SE 9 16.09 Mostly Cloudy BKN090 37.7 23.3 44% 44 76.2 0.0
02 16:35 SE 6 16.09 Mostly Cloudy SCT070 BKN090 38 23.5 43% 45 76.23 0.0
02 16:15 SE 7 16.09 Partly Cloudy SCT080 37.4 23.3 44% 44 76.23 0.0
02 15:55 Calm 16.09 Partly Cloudy SCT080 38.1 23.6 43% 45 76.23 0.0
02 15:35 Calm 16.09 Fair CLR 37.2 23.8 46% 44 76.25 0.0
02 15:15 E 9 16.09 Fair CLR 37.4 23.7 45% 45 76.28 0.0
02 14:55 E 6 16.09 Fair CLR 38.4 23.8 43% 46 76.28 0.0
02 14:35 SE 6 16.09 Fair CLR 37.1 23.7 46% 44 76.3 0.0
02 14:15 E 6 16.09 Fair CLR 36.9 24.5 49% 45 76.3 0.0
02 13:55 Calm 16.09 Fair CLR 36.2 24.3 37.3 24.8 50% 44 76.3 0.0
02 13:35 S 6 16.09 Partly Cloudy SCT055 36 24.2 51% 43 76.33 0.0
02 13:15 E 6 16.09 Partly Cloudy SCT055 36.8 24.6 50% 45 76.33 0.0
02 12:55 Calm 16.09 Fair CLR 37.2 24.8 49% 46 76.35 0.0
02 12:35 SE 6 16.09 Fair CLR 35.8 24.5 52% 44 76.35 0.0
02 12:15 Calm 16.09 Fair CLR 35.7 24.6 53% 44 76.35 0.0
02 11:55 NE 6 16.09 Fair CLR 34.9 24.5 55% 42 76.38 0.0
02 11:35 NE 7 16.09 Fair CLR 34 24.9 59% 42 76.38 0.0
02 11:15 Calm 16.09 Fair CLR 34.4 24.8 57% 42 76.4 0.0
02 10:55 Calm 16.09 Fair CLR 33.5 24.4 59% 40 76.4 0.0
02 10:35 NE 6 16.09 Fair CLR 32.9 24.5 61% 40 76.4 0.0
02 10:15 Calm 16.09 Fair CLR 32.5 24.1 61% 39 76.4 0.0
02 09:55 Calm 16.09 Fair CLR 31.4 24.1 65% 37 76.38 0.0
02 09:35 E 6 16.09 Fair CLR 30.7 24.6 70% 37 76.38 0.0
02 09:15 NE 6 16.09 Fair CLR 29.4 24.6 75% 35 76.35 0.0
02 08:55 Calm 16.09 Fair CLR 28.5 24.5 79% 33 76.35 0.0
02 08:35 Calm 16.09 Fair CLR 26.4 24.1 87% 29 76.38 0.0
02 08:15 Calm 16.09 Fair CLR 25.4 24 92% 27 76.38 0.0
02 07:55 Calm 16.09 Fair CLR 24.7 23.6 24.7 22.1 94% 25 76.38 0.0
02 07:35 Calm 16.09 Fair CLR 23.7 23 96% 76.38 0.0
02 07:15 Calm 11.27 Fair CLR 22.8 22.6 99% 76.38 0.0
02 06:55 Calm 16.09 Fair CLR 22.5 22.5 100% 76.35 0.0
02 06:35 Calm 11.27 Fair CLR 22.4 22.4 100% 76.33 0.0
02 06:15 Calm 16.09 Fair CLR 22.8 22.6 99% 76.3 0.0
02 05:55 Calm 16.09 Fair CLR 22.9 22.8 99% 76.3 0.0
02 05:35 Calm 16.09 Fair CLR 23.1 22.7 98% 76.3 0.0
02 05:15 Calm 16.09 Fair CLR 22.8 22.7 99% 76.3 0.0
02 04:55 Calm 16.09 Fair CLR 23.6 23 96% 76.3 0.0
02 04:35 Calm 16.09 Fair CLR 23.2 22.7 97% 76.3 0.0
02 04:15 Calm 16.09 Fair CLR 24 23.2 95% 23 76.3 0.0
02 03:55 W 6 16.09 Fair CLR 24.2 23.5 96% 23 76.28 0.0
02 03:35 Calm 16.09 Fair CLR 23.6 22.9 96% 76.28 0.0
02 03:15 Calm 16.09 Fair CLR 23.5 23 97% 76.3 0.0
02 02:55 Calm 16.09 Fair CLR 23.2 22.9 98% 76.3 0.0
02 02:35 Calm 16.09 Fair CLR 24.2 23.1 94% 24 76.3 0.0
02 02:15 Calm 16.09 Fair CLR 24.4 23.2 93% 24 76.3 0.0
02 01:55 Calm 16.09 Fair CLR 24.4 23.5 30.2 24.2 95% 24 76.3 0.0
02 01:35 Calm 16.09 Fair CLR 24.4 23.6 95% 24 76.3 0.0
02 01:15 Calm 16.09 Fair CLR 24.6 24 96% 24 76.3 0.0
02 00:55 Calm 16.09 Fair CLR 24.9 24 95% 25 76.3 0.0
02 00:35 Calm 16.09 Fair CLR 25 24.1 95% 26 76.28 0.0
02 00:15 Calm 16.09 Fair CLR 25 24.1 95% 26 76.25 0.0
01 23:55 Calm 16.09 Fair CLR 25.6 23.9 90% 27 76.23 0.0
01 23:35 Calm 16.09 Fair CLR 25 24.5 97% 25 76.23 0.0
01 23:15 Calm 16.09 Fair CLR 26.8 24.2 86% 30 76.23 0.0
01 22:55 Calm 16.09 Fair CLR 26.4 24.7 90% 29 76.23 0.0
01 22:35 Calm 16.09 Fair CLR 26.1 24.5 91% 28 76.23 0.0
01 22:15 Calm 16.09 Fair CLR 26.5 24.3 88% 29 76.23 0.0
01 21:55 Calm 16.09 Fair CLR 28.5 23.7 75% 33 76.2 0.0
01 21:35 Calm 16.09 Fair CLR 28 23.8 78% 32 76.2 0.0
01 21:15 Calm 16.09 Fair CLR 27 24 84% 30 76.17 0.0
01 20:55 Calm 6.44 Fair with Haze CLR 28 23.9 78% 32 76.15 0.0
01 20:35 Calm 16.09 Fair CLR 29.4 23.6 71% 34 76.15 0.0
01 20:15 Calm 16.09 Fair CLR 29.6 23.6 70% 34 76.15 0.0
01 19:55 Calm 11.27 Fair CLR 30.6 23.6 37.4 30.6 66% 36 76.12 0.0
01 19:35 Calm 16.09 Fair CLR 31.9 23.5 61% 37 76.15 0.0
01 19:15 Calm 16.09 Fair CLR 33 23.1 56% 38 76.15 0.0
01 18:55 Calm 16.09 Fair CLR 33.8 23.1 54% 39 76.15 0.0
01 18:35 Calm 16.09 Fair CLR 35.2 22.7 48% 40 76.15 0.0
01 18:15 Calm 16.09 Fair CLR 35.9 22.3 45% 41 76.15 0.0
01 17:55 Calm 16.09 Fair CLR 36.6 22.8 45% 42 76.15 0.0
01 17:35 W 6 16.09 Fair CLR 36.8 22.6 44% 42 76.15 0.0
01 17:15 Calm 16.09 Fair CLR 37.1 22.5 43% 43 76.15 0.0
01 16:55 Calm 16.09 Partly Cloudy SCT075 36.2 23.6 48% 43 76.17 0.0
01 16:35 SE 7 16.09 Fair CLR 36.3 24.1 49% 44 76.17 0.0
01 16:15 S 7 16.09 Partly Cloudy SCT070 SCT085 35.4 23.4 50% 42 76.2 0.0
01 15:55 E 7 16.09 Mostly Cloudy SCT070 BKN085 37.2 22.9 44% 43 76.2 0.0
01 15:35 SW 6 16.09 Mostly Cloudy SCT070 BKN085 36 22.2 45% 41 76.23 0.0
01 15:15 N 9 16.09 Mostly Cloudy SCT070 BKN085 36.9 22.3 43% 42 76.23 0.0
01 14:55 Calm 16.09 Mostly Cloudy BKN085 36.6 23 45% 43 76.23 0.0
01 14:35 SW 7 0.00 NULL NULL 36.3 23 46% 42 76.28 0.0
01 12:35 N 13 16.09 Partly Cloudy SCT055 SCT070 34.8 23.2 51% 41 76.3 0.0
01 12:15 Calm 16.09 Fair CLR 35.9 24 50% 43 76.33 0.0
01 11:55 Calm 16.09 Fair CLR 34.5 22.8 51% 40 76.35 0.0
01 11:35 Calm 16.09 Fair CLR 33.9 24 56% 40 76.35 0.0
01 11:15 Calm 16.09 Fair CLR 33.6 24.3 58% 40 76.35 0.0
01 10:55 SW 6 16.09 Fair CLR 33.1 24.3 60% 40 76.38 0.0
01 10:35 W 6 16.09 Fair CLR 32.3 24.3 63% 39 76.38 0.0
01 10:15 W 7 16.09 Fair CLR 31.6 24.5 66% 38 76.38 0.0
01 09:55 SW 6 16.09 Fair CLR 31.2 24.7 68% 38 76.38 0.0
01 09:35 Calm 16.09 Fair CLR 29.5 25 77% 35 76.38 0.0
01 09:15 SW 6 16.09 Fair CLR 28.7 24.7 79% 34 76.38 0.0
01 08:55 Calm 16.09 Fair CLR 27.1 24.5 86% 31 76.4 0.0
01 08:35 Calm 16.09 Fair CLR 25.3 23.9 92% 26 76.4 0.0
01 08:15 Calm 16.09 Fair CLR 24.3 23.5 95% 24 76.4 0.0
01 07:55 Calm 16.09 Fair CLR 23.6 23.1 23.6 20.7 97% 76.38 0.0
01 07:35 Calm 11.27 Fair CLR 22.5 22.5 100% 76.38 0.0
01 07:15 Calm 8.05 Fog/Mist CLR 21.8 21.8 100% 76.35 0.0
01 06:35 Calm 11.27 Fair CLR 21.8 21.8 100% 76.35 0.0
01 06:15 S 6 8.05 Fog/Mist CLR 20.8 20.8 100% 76.33 0.0
01 05:55 Calm 8.05 Fog/Mist SCT002 21.6 21.6 100% 76.35 0.0
01 05:35 Calm 1.21 Fog/Mist BKN002 21.8 21.8 100% 76.35 0.0
01 05:15 Calm 6.44 Fog/Mist CLR 22 22 100% 76.35 0.0
01 04:55 Calm 8.05 Fog/Mist CLR 21.8 21.8 100% 76.35 0.0
01 04:35 Calm 11.27 Fair CLR 22 22 100% 76.35 0.0
01 04:15 Calm 11.27 Fair CLR 22.2 22.2 100% 76.35 0.0
01 03:55 Calm 11.27 Fair CLR 22.3 22.3 100% 76.35 0.0
01 03:35 Calm 11.27 Fair CLR 21.9 21.9 100% 76.35 0.0
01 03:15 Calm 16.09 Fair CLR 22.6 22.6 100% 76.35 0.0
01 02:55 Calm 16.09 Fair CLR 22.4 22.4 100% 76.35 0.0
01 02:35 Calm 16.09 Fair CLR 22.6 22.6 100% 76.35 0.0
01 02:15 Calm 16.09 Fair CLR 22.8 22.8 100% 76.38 0.0
01 01:55 Calm 16.09 Fair CLR 23.2 23.1 29.6 22.5 99% 76.4 0.0
01 01:35 Calm 16.09 Fair CLR 22.7 22.5 99% 76.4 0.0
01 01:15 Calm 16.09 Fair CLR 23.3 22.8 97% 76.4 0.0
01 00:55 Calm 16.09 Fair CLR 24.2 23.2 94% 24 76.4 0.0
01 00:35 Calm 16.09 Fair CLR 23.9 23.1 95% 23 76.4 0.0
01 00:15 Calm 16.09 Fair CLR 24.3 23.5 95% 24 76.4 0.0
31 23:55 Calm 16.09 Fair CLR 24.6 23.5 94% 25 76.4 0.0
31 23:35 Calm 16.09 Fair CLR 24.7 23.5 93% 25 76.4 0.0
31 23:15 Calm 16.09 Fair CLR 25.5 23.6 89% 27 76.43 0.0
31 22:55 Calm 16.09 Fair CLR 25.6 23.6 89% 27 76.43 0.0
31 22:35 Calm 16.09 Partly Cloudy SCT100 26 23.6 87% 28 76.43 0.0
31 22:15 Calm 16.09 Mostly Cloudy BKN100 26.2 23.7 86% 28 76.43 0.0
31 21:55 Calm 16.09 Partly Cloudy SCT070 SCT100 26.7 23.7 84% 29 76.43 0.0
31 21:35 Calm 16.09 Mostly Cloudy BKN070 BKN110 26.9 23.6 82% 30 76.4 0.0
31 21:15 SW 6 16.09 Mostly Cloudy BKN070 27.1 23.5 81% 30 76.4 0.0
31 20:55 Calm 16.09 Mostly Cloudy SCT070 BKN120 27.5 23.5 79% 31 76.38 0.0
31 20:35 Calm 16.09 Mostly Cloudy BKN120 27.6 23.8 80% 31 76.38 0.0
31 20:15 N 9 16.09 Overcast SCT065 BKN090 OVC120 28.3 24 78% 32 76.38 0.0
31 19:55 N 15 G 28 16.09 Overcast BKN065 OVC090 29.8 24.5 35.9 29.8 73% 35 76.35 0.0
Date Time (edt) Wind (kph) Vis. (km) Weather Sky Cond. Air Dwpt Max. Min. Relative Humidity Wind Chill (°C) Heat Index (°C) altimeter (cm) sea level (mb) 1 hr 3 hr 6 hr
6 hour
Temperature (ºC) Pressure Precipitation (cm)